createdAt,value
2017-04-05T00:00:26.646Z,1037.93
2017-04-05T00:01:26.640Z,1037.9
2017-04-05T00:02:26.632Z,1037.86
2017-04-05T00:03:26.624Z,1037.83
2017-04-05T00:04:26.617Z,1037.8
2017-04-05T00:05:26.610Z,1037.75
2017-04-05T00:06:26.602Z,1037.72
2017-04-05T00:07:26.594Z,1037.72
2017-04-05T00:08:26.587Z,1037.72
2017-04-05T00:09:26.580Z,1037.68
2017-04-05T00:10:26.571Z,1037.68
2017-04-05T00:11:26.564Z,1037.68
2017-04-05T00:12:26.556Z,1037.66
2017-04-05T00:13:26.548Z,1037.63
2017-04-05T00:14:26.541Z,1037.63
2017-04-05T00:15:26.534Z,1037.68
2017-04-05T00:16:26.527Z,1037.68
2017-04-05T00:17:26.519Z,1037.74
2017-04-05T00:18:26.511Z,1037.73
2017-04-05T00:19:26.504Z,1037.72
2017-04-05T00:20:26.497Z,1037.75
2017-04-05T00:21:26.489Z,1037.77
2017-04-05T00:22:26.481Z,1037.72
2017-04-05T00:23:26.474Z,1037.68
2017-04-05T00:24:26.465Z,1037.68
2017-04-05T00:25:26.459Z,1037.64
2017-04-05T00:26:26.451Z,1037.61
2017-04-05T00:27:26.443Z,1037.57
2017-04-05T00:28:26.435Z,1037.61
2017-04-05T00:29:26.428Z,1037.64
2017-04-05T00:30:26.420Z,1037.62
2017-04-05T00:31:26.417Z,1037.59
2017-04-05T00:32:26.406Z,1037.58
2017-04-05T00:33:26.398Z,1037.63
2017-04-05T00:34:26.390Z,1037.63
2017-04-05T00:35:26.382Z,1037.62
2017-04-05T00:36:26.374Z,1037.65
2017-04-05T00:37:26.368Z,1037.64
2017-04-05T00:38:26.360Z,1037.65
2017-04-05T00:39:26.352Z,1037.69
2017-04-05T00:40:26.344Z,1037.67
2017-04-05T00:41:26.337Z,1037.67
2017-04-05T00:42:26.330Z,1037.68
2017-04-05T00:43:26.322Z,1037.67
2017-04-05T00:44:26.315Z,1037.67
2017-04-05T00:45:26.308Z,1037.68
2017-04-05T00:46:26.299Z,1037.65
2017-04-05T00:47:26.291Z,1037.62
2017-04-05T00:48:26.285Z,1037.59
2017-04-05T00:49:26.277Z,1037.61
2017-04-05T00:50:26.269Z,1037.63
2017-04-05T00:51:26.262Z,1037.72
2017-04-05T00:52:26.255Z,1037.66
2017-04-05T00:53:26.246Z,1037.67
2017-04-05T00:54:26.238Z,1037.61
2017-04-05T00:55:26.256Z,1037.55
2017-04-05T00:56:26.223Z,1037.54
2017-04-05T00:57:26.215Z,1037.51
2017-04-05T00:58:26.208Z,1037.53
2017-04-05T00:59:26.200Z,1037.55
2017-04-05T01:00:26.193Z,1037.49
2017-04-05T01:01:26.185Z,1037.47
2017-04-05T01:02:26.200Z,1037.41
2017-04-05T01:03:26.170Z,1037.37
2017-04-05T01:04:26.162Z,1037.36
2017-04-05T01:05:26.154Z,1037.34
2017-04-05T01:06:26.147Z,1037.33
2017-04-05T01:07:26.140Z,1037.37
2017-04-05T01:08:26.130Z,1037.35
2017-04-05T01:09:26.123Z,1037.29
2017-04-05T01:10:26.117Z,1037.31
2017-04-05T01:11:26.109Z,1037.27
2017-04-05T01:12:26.101Z,1037.33
2017-04-05T01:13:26.093Z,1037.31
2017-04-05T01:14:26.086Z,1037.34
2017-04-05T01:15:26.078Z,1037.32
2017-04-05T01:16:26.071Z,1037.33
2017-04-05T01:17:26.063Z,1037.32
2017-04-05T01:18:26.055Z,1037.34
2017-04-05T01:19:26.048Z,1037.36
2017-04-05T01:20:26.041Z,1037.33
2017-04-05T01:21:26.034Z,1037.35
2017-04-05T01:22:26.026Z,1037.35
2017-04-05T01:23:26.017Z,1037.37
2017-04-05T01:24:26.009Z,1037.37
2017-04-05T01:25:26.002Z,1037.38
2017-04-05T01:26:25.994Z,1037.37
2017-04-05T01:27:25.986Z,1037.32
2017-04-05T01:28:25.979Z,1037.34
2017-04-05T01:29:25.972Z,1037.33
2017-04-05T01:30:25.964Z,1037.3
2017-04-05T01:31:25.956Z,1037.32
2017-04-05T01:32:25.951Z,1037.35
2017-04-05T01:33:25.941Z,1037.36
2017-04-05T01:34:25.932Z,1037.4
2017-04-05T01:35:25.925Z,1037.44
2017-04-05T01:36:25.919Z,1037.46
2017-04-05T01:37:25.910Z,1037.43
2017-04-05T01:38:25.902Z,1037.4
2017-04-05T01:39:25.895Z,1037.41
2017-04-05T01:40:25.887Z,1037.37
2017-04-05T01:41:25.880Z,1037.37
2017-04-05T01:42:25.872Z,1037.39
2017-04-05T01:43:25.867Z,1037.37
2017-04-05T01:44:25.856Z,1037.36
2017-04-05T01:45:25.849Z,1037.37
2017-04-05T01:46:25.842Z,1037.39
2017-04-05T01:47:25.833Z,1037.33
2017-04-05T01:48:25.825Z,1037.37
2017-04-05T01:49:25.818Z,1037.33
2017-04-05T01:50:25.811Z,1037.31
2017-04-05T01:51:25.804Z,1037.32
2017-04-05T01:52:25.795Z,1037.32
2017-04-05T01:53:25.786Z,1037.29
2017-04-05T01:54:25.780Z,1037.3
2017-04-05T01:55:25.772Z,1037.26
2017-04-05T01:56:25.764Z,1037.24
2017-04-05T01:57:25.757Z,1037.25
2017-04-05T01:58:25.749Z,1037.22
2017-04-05T01:59:25.740Z,1037.22
2017-04-05T02:00:25.733Z,1037.2
2017-04-05T02:01:25.726Z,1037.18
2017-04-05T02:02:25.718Z,1037.17
2017-04-05T02:03:25.709Z,1037.16
2017-04-05T02:04:25.702Z,1037.19
2017-04-05T02:05:25.695Z,1037.22
2017-04-05T02:06:25.688Z,1037.24
2017-04-05T02:07:25.679Z,1037.23
2017-04-05T02:08:25.672Z,1037.24
2017-04-05T02:09:25.664Z,1037.21
2017-04-05T02:10:25.656Z,1037.17
2017-04-05T02:11:25.648Z,1037.1
2017-04-05T02:12:25.642Z,1037.12
2017-04-05T02:13:25.633Z,1037.1
2017-04-05T02:14:25.625Z,1037.06
2017-04-05T02:15:25.618Z,1037.08
2017-04-05T02:16:25.610Z,1037.06
2017-04-05T02:17:25.603Z,1037.04
2017-04-05T02:18:25.596Z,1037
2017-04-05T02:19:25.588Z,1036.94
2017-04-05T02:20:25.581Z,1036.9
2017-04-05T02:21:25.572Z,1036.89
2017-04-05T02:22:25.565Z,1036.86
2017-04-05T02:23:25.558Z,1036.86
2017-04-05T02:24:25.550Z,1036.85
2017-04-05T02:25:25.542Z,1036.85
2017-04-05T02:26:25.536Z,1036.82
2017-04-05T02:27:25.528Z,1036.81
2017-04-05T02:28:25.519Z,1036.85
2017-04-05T02:29:25.512Z,1036.82
2017-04-05T02:30:25.505Z,1036.83
2017-04-05T02:31:25.498Z,1036.83
2017-04-05T02:32:25.489Z,1036.85
2017-04-05T02:33:25.482Z,1036.83
2017-04-05T02:34:25.475Z,1036.87
2017-04-05T02:35:25.467Z,1036.96
2017-04-05T02:36:25.459Z,1036.96
2017-04-05T02:37:25.451Z,1036.98
2017-04-05T02:38:25.444Z,1037.01
2017-04-05T02:39:25.435Z,1037.07
2017-04-05T02:40:25.429Z,1037.09
2017-04-05T02:41:25.421Z,1037.12
2017-04-05T02:42:25.414Z,1037.11
2017-04-05T02:43:25.405Z,1037.14
2017-04-05T02:44:25.398Z,1037.09
2017-04-05T02:45:25.391Z,1037.11
2017-04-05T02:46:25.383Z,1037.09
2017-04-05T02:47:25.375Z,1037.05
2017-04-05T02:48:25.367Z,1037.09
2017-04-05T02:49:25.360Z,1037.05
2017-04-05T02:50:25.351Z,1037.05
2017-04-05T02:51:25.345Z,1037.06
2017-04-05T02:52:25.337Z,1037.04
2017-04-05T02:53:25.330Z,1037.07
2017-04-05T02:54:25.321Z,1037.07
2017-04-05T02:55:25.314Z,1037.04
2017-04-05T02:56:25.306Z,1037.06
2017-04-05T02:57:25.299Z,1037.05
2017-04-05T02:58:25.291Z,1037.04
2017-04-05T02:59:25.283Z,1037.07
2017-04-05T03:00:25.275Z,1037.02
2017-04-05T03:01:25.267Z,1037
2017-04-05T03:02:25.259Z,1037.03
2017-04-05T03:03:25.253Z,1037.05
2017-04-05T03:04:25.244Z,1037
2017-04-05T03:05:25.236Z,1037
2017-04-05T03:06:25.229Z,1036.97
2017-04-05T03:07:25.221Z,1036.94
2017-04-05T03:08:25.213Z,1036.94
2017-04-05T03:09:25.205Z,1036.95
2017-04-05T03:10:25.197Z,1036.94
2017-04-05T03:11:25.190Z,1036.91
2017-04-05T03:12:25.182Z,1036.91
2017-04-05T03:13:25.175Z,1036.87
2017-04-05T03:14:25.167Z,1036.83
2017-04-05T03:15:25.159Z,1036.79
2017-04-05T03:16:25.150Z,1036.73
2017-04-05T03:17:25.143Z,1036.74
2017-04-05T03:18:25.135Z,1036.74
2017-04-05T03:19:25.128Z,1036.74
2017-04-05T03:20:25.120Z,1036.72
2017-04-05T03:21:25.112Z,1036.74
2017-04-05T03:22:25.104Z,1036.77
2017-04-05T03:23:25.095Z,1036.76
2017-04-05T03:24:25.088Z,1036.82
2017-04-05T03:25:25.081Z,1036.8
2017-04-05T03:26:25.074Z,1036.79
2017-04-05T03:27:25.066Z,1036.79
2017-04-05T03:28:25.058Z,1036.82
2017-04-05T03:29:25.055Z,1036.82
2017-04-05T03:30:25.043Z,1036.87
2017-04-05T03:31:25.034Z,1036.87
2017-04-05T03:32:25.027Z,1036.82
2017-04-05T03:33:25.020Z,1036.87
2017-04-05T03:34:25.011Z,1036.86
2017-04-05T03:35:25.003Z,1036.85
2017-04-05T03:36:24.996Z,1036.81
2017-04-05T03:37:24.989Z,1036.8
2017-04-05T03:38:24.980Z,1036.81
2017-04-05T03:39:24.973Z,1036.81
2017-04-05T03:40:24.965Z,1036.76
2017-04-05T03:41:24.958Z,1036.73
2017-04-05T03:42:24.949Z,1036.66
2017-04-05T03:43:24.942Z,1036.63
2017-04-05T03:44:24.934Z,1036.62
2017-04-05T03:45:24.926Z,1036.62
2017-04-05T03:46:24.918Z,1036.68
2017-04-05T03:47:24.911Z,1036.69
2017-04-05T03:48:24.903Z,1036.72
2017-04-05T03:49:24.895Z,1036.72
2017-04-05T03:50:24.887Z,1036.65
2017-04-05T03:51:24.880Z,1036.64
2017-04-05T03:52:24.874Z,1036.62
2017-04-05T03:53:24.865Z,1036.57
2017-04-05T03:54:24.857Z,1036.61
2017-04-05T03:55:24.853Z,1036.57
2017-04-05T03:56:24.842Z,1036.56
2017-04-05T03:57:24.834Z,1036.53
2017-04-05T03:58:24.827Z,1036.54
2017-04-05T03:59:24.819Z,1036.57
2017-04-05T04:00:24.811Z,1036.53
2017-04-05T04:01:24.804Z,1036.53
2017-04-05T04:02:24.796Z,1036.54
2017-04-05T04:03:24.788Z,1036.53
2017-04-05T04:04:24.780Z,1036.5
2017-04-05T04:05:24.773Z,1036.49
2017-04-05T04:06:24.766Z,1036.5
2017-04-05T04:07:24.757Z,1036.49
2017-04-05T04:08:24.750Z,1036.45
2017-04-05T04:09:24.742Z,1036.45
2017-04-05T04:10:24.735Z,1036.44
2017-04-05T04:11:24.727Z,1036.45
2017-04-05T04:12:24.720Z,1036.45
2017-04-05T04:13:24.712Z,1036.41
2017-04-05T04:14:24.704Z,1036.42
2017-04-05T04:15:24.697Z,1036.38
2017-04-05T04:16:24.690Z,1036.32
2017-04-05T04:17:24.682Z,1036.32
2017-04-05T04:18:24.673Z,1036.3
2017-04-05T04:19:24.667Z,1036.28
2017-04-05T04:20:24.659Z,1036.27
2017-04-05T04:21:24.652Z,1036.24
2017-04-05T04:22:24.644Z,1036.25
2017-04-05T04:23:24.636Z,1036.23
2017-04-05T04:24:24.629Z,1036.23
2017-04-05T04:25:24.621Z,1036.19
2017-04-05T04:26:24.614Z,1036.2
2017-04-05T04:27:24.608Z,1036.16
2017-04-05T04:28:24.599Z,1036.17
2017-04-05T04:29:24.591Z,1036.21
2017-04-05T04:30:24.583Z,1036.17
2017-04-05T04:31:24.576Z,1036.2
2017-04-05T04:32:24.569Z,1036.2
2017-04-05T04:33:24.560Z,1036.22
2017-04-05T04:34:24.553Z,1036.18
2017-04-05T04:35:24.546Z,1036.11
2017-04-05T04:36:24.538Z,1036.1
2017-04-05T04:37:24.531Z,1036.06
2017-04-05T04:38:24.524Z,1036.03
2017-04-05T04:39:24.516Z,1036.02
2017-04-05T04:40:24.508Z,1036.04
2017-04-05T04:41:24.501Z,1036.01
2017-04-05T04:42:24.493Z,1036.02
2017-04-05T04:43:24.486Z,1036.03
2017-04-05T04:44:24.478Z,1036.01
2017-04-05T04:45:24.471Z,1036.03
2017-04-05T04:46:24.464Z,1036.08
2017-04-05T04:47:24.456Z,1036.09
2017-04-05T04:48:24.448Z,1036.15
2017-04-05T04:49:24.442Z,1036.12
2017-04-05T04:50:24.435Z,1036.14
2017-04-05T04:51:24.426Z,1036.13
2017-04-05T04:52:24.419Z,1036.15
2017-04-05T04:53:24.411Z,1036.1
2017-04-05T04:54:24.404Z,1036.06
2017-04-05T04:55:24.401Z,1036.09
2017-04-05T04:56:24.390Z,1036.07
2017-04-05T04:57:24.382Z,1036.11
2017-04-05T04:58:24.374Z,1036.12
2017-04-05T04:59:24.366Z,1036.13
2017-04-05T05:00:24.360Z,1036.15
2017-04-05T05:01:24.353Z,1036.13
2017-04-05T05:02:24.344Z,1036.08
2017-04-05T05:03:24.342Z,1036.1
2017-04-05T05:04:24.331Z,1036.07
2017-04-05T05:05:24.323Z,1036.01
2017-04-05T05:06:24.316Z,1036.01
2017-04-05T05:07:24.308Z,1036.04
2017-04-05T05:08:24.300Z,1036.04
2017-04-05T05:09:24.293Z,1036.04
2017-04-05T05:10:24.285Z,1036.07
2017-04-05T05:11:24.278Z,1036.08
2017-04-05T05:12:24.271Z,1036.08
2017-04-05T05:13:24.263Z,1036.1
2017-04-05T05:14:24.259Z,1036.13
2017-04-05T05:15:24.249Z,1036.11
2017-04-05T05:16:24.242Z,1036.07
2017-04-05T05:17:24.234Z,1036.07
2017-04-05T05:18:24.226Z,1036.07
2017-04-05T05:19:24.220Z,1036.06
2017-04-05T05:20:24.214Z,1036.02
2017-04-05T05:21:24.204Z,1035.98
2017-04-05T05:22:24.197Z,1035.96
2017-04-05T05:23:24.190Z,1035.96
2017-04-05T05:24:24.182Z,1035.96
2017-04-05T05:25:24.175Z,1035.92
2017-04-05T05:26:24.168Z,1035.92
2017-04-05T05:27:24.161Z,1035.88
2017-04-05T05:28:24.154Z,1035.88
2017-04-05T05:29:24.146Z,1035.85
2017-04-05T05:30:24.140Z,1035.82
2017-04-05T05:31:24.131Z,1035.8
2017-04-05T05:32:24.125Z,1035.76
2017-04-05T05:33:24.116Z,1035.69
2017-04-05T05:34:24.113Z,1035.64
2017-04-05T05:35:24.102Z,1035.62
2017-04-05T05:36:24.096Z,1035.59
2017-04-05T05:37:24.087Z,1035.53
2017-04-05T05:38:24.081Z,1035.49
2017-04-05T05:39:24.072Z,1035.42
2017-04-05T05:40:24.067Z,1035.38
2017-04-05T05:41:24.060Z,1035.36
2017-04-05T05:42:24.052Z,1035.37
2017-04-05T05:43:24.044Z,1035.31
2017-04-05T05:44:24.037Z,1035.18
2017-04-05T05:45:24.031Z,1035.11
2017-04-05T05:46:24.022Z,1035.11
2017-04-05T05:47:24.016Z,1035.03
2017-04-05T05:48:24.009Z,1035.01
2017-04-05T05:49:24.002Z,1034.98
2017-04-05T05:50:23.995Z,1034.94
2017-04-05T05:51:23.990Z,1034.93
2017-04-05T05:52:23.983Z,1034.93
2017-04-05T05:53:23.975Z,1034.9
2017-04-05T05:54:23.969Z,1034.9
2017-04-05T05:55:23.963Z,1034.86
2017-04-05T05:56:23.956Z,1034.88
2017-04-05T05:57:23.949Z,1034.89
2017-04-05T05:58:23.943Z,1034.91
2017-04-05T05:59:23.944Z,1034.9
2017-04-05T06:00:23.930Z,1034.87
2017-04-05T06:01:23.923Z,1034.87
2017-04-05T06:02:23.917Z,1034.85
2017-04-05T06:03:23.910Z,1034.91
2017-04-05T06:04:23.903Z,1034.93
2017-04-05T06:05:23.897Z,1034.93
2017-04-05T06:06:23.891Z,1034.9
2017-04-05T06:07:23.885Z,1034.93
2017-04-05T06:08:23.878Z,1034.94
2017-04-05T06:09:23.872Z,1034.92
2017-04-05T06:10:23.868Z,1034.91
2017-04-05T06:11:23.860Z,1034.92
2017-04-05T06:12:23.853Z,1034.91
2017-04-05T06:13:23.847Z,1034.92
2017-04-05T06:14:23.841Z,1034.93
2017-04-05T06:15:23.835Z,1034.93
2017-04-05T06:16:23.828Z,1034.96
2017-04-05T06:17:23.822Z,1034.92
2017-04-05T06:18:23.816Z,1034.92
2017-04-05T06:19:23.808Z,1034.97
2017-04-05T06:20:23.804Z,1034.96
2017-04-05T06:21:23.797Z,1035.04
2017-04-05T06:22:23.792Z,1035.01
2017-04-05T06:23:23.785Z,1035.02
2017-04-05T06:24:23.778Z,1035.02
2017-04-05T06:25:23.772Z,1034.99
2017-04-05T06:26:23.766Z,1034.96
2017-04-05T06:27:23.760Z,1034.91
2017-04-05T06:28:23.754Z,1034.87
2017-04-05T06:29:23.748Z,1034.78
2017-04-05T06:30:23.742Z,1034.81
2017-04-05T06:31:23.735Z,1034.85
2017-04-05T06:32:23.730Z,1034.92
2017-04-05T06:33:23.722Z,1034.94
2017-04-05T06:34:23.717Z,1034.98
2017-04-05T06:35:23.712Z,1034.98
2017-04-05T06:36:23.705Z,1035.01
2017-04-05T06:37:23.698Z,1034.99
2017-04-05T06:38:23.693Z,1035
2017-04-05T06:39:23.687Z,1034.98
2017-04-05T06:40:23.682Z,1034.99
2017-04-05T06:41:23.675Z,1035
2017-04-05T06:42:23.668Z,1035.01
2017-04-05T06:43:23.662Z,1035.06
2017-04-05T06:44:23.656Z,1035.07
2017-04-05T06:45:23.650Z,1035.1
2017-04-05T06:46:23.644Z,1035.05
2017-04-05T06:47:23.638Z,1035.05
2017-04-05T06:48:23.631Z,1035.05
2017-04-05T06:49:23.626Z,1035.01
2017-04-05T06:50:23.620Z,1034.99
2017-04-05T06:51:23.614Z,1035
2017-04-05T06:52:23.607Z,1034.98
2017-04-05T06:53:23.602Z,1034.9
2017-04-05T06:54:23.596Z,1034.84
2017-04-05T06:55:23.589Z,1034.79
2017-04-05T06:56:23.583Z,1034.76
2017-04-05T06:57:23.577Z,1034.73
2017-04-05T06:58:23.572Z,1034.67
2017-04-05T06:59:23.565Z,1034.67
2017-04-05T07:00:23.560Z,1034.66
2017-04-05T07:01:23.554Z,1034.71
2017-04-05T07:02:23.548Z,1034.69
2017-04-05T07:03:23.544Z,1034.72
2017-04-05T07:04:23.537Z,1034.7
2017-04-05T07:05:23.532Z,1034.71
2017-04-05T07:06:23.525Z,1034.71
2017-04-05T07:07:23.525Z,1034.69
2017-04-05T07:08:23.513Z,1034.66
2017-04-05T07:09:23.508Z,1034.64
2017-04-05T07:10:23.502Z,1034.63
2017-04-05T07:11:23.499Z,1034.59
2017-04-05T07:12:23.490Z,1034.58
2017-04-05T07:13:23.484Z,1034.59
2017-04-05T07:14:23.479Z,1034.59
2017-04-05T07:15:23.473Z,1034.59
2017-04-05T07:16:23.468Z,1034.61
2017-04-05T07:17:23.461Z,1034.61
2017-04-05T07:18:23.456Z,1034.64
2017-04-05T07:19:23.451Z,1034.61
2017-04-05T07:20:23.445Z,1034.65
2017-04-05T07:21:23.439Z,1034.61
2017-04-05T07:22:23.433Z,1034.62
2017-04-05T07:23:23.428Z,1034.64
2017-04-05T07:24:23.421Z,1034.61
2017-04-05T07:25:23.416Z,1034.6
2017-04-05T07:26:23.411Z,1034.6
2017-04-05T07:27:23.405Z,1034.58
2017-04-05T07:28:23.399Z,1034.59
2017-04-05T07:29:23.394Z,1034.57
2017-04-05T07:30:23.389Z,1034.55
2017-04-05T07:31:23.383Z,1034.47
2017-04-05T07:32:23.377Z,1034.42
2017-04-05T07:33:23.372Z,1034.41
2017-04-05T07:34:23.366Z,1034.38
2017-04-05T07:35:23.362Z,1034.36
2017-04-05T07:36:23.355Z,1034.39
2017-04-05T07:37:23.351Z,1034.33
2017-04-05T07:38:23.344Z,1034.29
2017-04-05T07:39:23.337Z,1034.29
2017-04-05T07:40:23.333Z,1034.29
2017-04-05T07:41:23.327Z,1034.23
2017-04-05T07:42:23.323Z,1034.19
2017-04-05T07:43:23.317Z,1034.18
2017-04-05T07:44:23.313Z,1034.21
2017-04-05T07:45:23.306Z,1034.17
2017-04-05T07:46:23.300Z,1034.15
2017-04-05T07:47:23.295Z,1034.09
2017-04-05T07:48:23.290Z,1034.04
2017-04-05T07:49:23.285Z,1033.93
2017-04-05T07:50:23.279Z,1033.91
2017-04-05T07:51:23.274Z,1033.84
2017-04-05T07:52:23.270Z,1033.77
2017-04-05T07:53:23.290Z,1033.66
2017-04-05T07:54:23.259Z,1033.57
2017-04-05T07:55:23.254Z,1033.47
2017-04-05T07:56:23.250Z,1033.37
2017-04-05T07:57:23.244Z,1033.27
2017-04-05T07:58:23.239Z,1033.22
2017-04-05T07:59:23.235Z,1033.17
2017-04-05T08:00:23.230Z,1033.16
2017-04-05T08:01:23.224Z,1033.22
2017-04-05T08:02:23.222Z,1033.25
2017-04-05T08:03:23.216Z,1033.23
2017-04-05T08:04:23.212Z,1033.18
2017-04-05T08:05:23.207Z,1033.12
2017-04-05T08:06:23.202Z,1033.02
2017-04-05T08:07:23.199Z,1032.92
2017-04-05T08:08:23.194Z,1032.91
2017-04-05T08:09:23.190Z,1032.87
2017-04-05T08:10:23.185Z,1032.85
2017-04-05T08:11:23.182Z,1032.81
2017-04-05T08:12:23.176Z,1032.8
2017-04-05T08:13:23.175Z,1032.79
2017-04-05T08:14:23.171Z,1032.74
2017-04-05T08:15:23.165Z,1032.7
2017-04-05T08:16:23.161Z,1032.62
2017-04-05T08:17:23.158Z,1032.56
2017-04-05T08:18:23.153Z,1032.53
2017-04-05T08:19:23.149Z,1032.43
2017-04-05T08:20:23.144Z,1032.22
2017-04-05T08:21:23.142Z,1032.09
2017-04-05T08:22:23.139Z,1032
2017-04-05T08:23:23.135Z,1031.89
2017-04-05T08:24:23.132Z,1031.75
2017-04-05T08:25:23.128Z,1031.64
2017-04-05T08:26:23.126Z,1031.58
2017-04-05T08:27:23.122Z,1031.46
2017-04-05T08:28:23.119Z,1031.41
2017-04-05T08:29:23.116Z,1031.35
2017-04-05T08:30:23.112Z,1031.25
2017-04-05T08:31:23.110Z,1031.16
2017-04-05T08:32:23.108Z,1031.05
2017-04-05T08:33:23.106Z,1031.02
2017-04-05T08:34:23.101Z,1031.01
2017-04-05T08:35:23.102Z,1031.09
2017-04-05T08:36:23.099Z,1031.2
2017-04-05T08:37:23.096Z,1031.29
2017-04-05T08:38:23.096Z,1031.31
2017-04-05T08:39:23.093Z,1031.34
2017-04-05T08:40:23.092Z,1031.34
2017-04-05T08:41:23.089Z,1031.33
2017-04-05T08:42:23.087Z,1031.38
2017-04-05T08:43:23.085Z,1031.38
2017-04-05T08:44:23.084Z,1031.42
2017-04-05T08:45:23.081Z,1031.33
2017-04-05T08:46:23.079Z,1031.25
2017-04-05T08:47:23.078Z,1031.19
2017-04-05T08:48:23.074Z,1031.1
2017-04-05T08:49:23.074Z,1031.03
2017-04-05T08:50:23.073Z,1030.96
2017-04-05T08:51:23.072Z,1030.92
2017-04-05T08:52:23.069Z,1030.72
2017-04-05T08:53:23.068Z,1030.6
2017-04-05T08:54:23.067Z,1030.46
2017-04-05T08:55:23.066Z,1030.35
2017-04-05T08:56:23.065Z,1030.2
2017-04-05T08:57:23.063Z,1030.12
2017-04-05T08:58:23.063Z,1030.11
2017-04-05T08:59:23.062Z,1030.13
2017-04-05T09:00:23.061Z,1030.1
2017-04-05T09:01:23.061Z,1030.01
2017-04-05T09:02:23.060Z,1029.84
2017-04-05T09:03:23.059Z,1029.87
2017-04-05T09:04:23.059Z,1029.94
2017-04-05T09:05:23.060Z,1030.04
2017-04-05T09:06:23.059Z,1029.97
2017-04-05T09:07:23.058Z,1029.79
2017-04-05T09:08:23.058Z,1029.88
2017-04-05T09:09:23.059Z,1029.97
2017-04-05T09:10:23.058Z,1030.08
2017-04-05T09:11:23.058Z,1030.13
2017-04-05T09:12:23.059Z,1030.14
2017-04-05T09:13:23.058Z,1030.13
2017-04-05T09:14:23.057Z,1030.1
2017-04-05T09:15:23.061Z,1030.06
2017-04-05T09:16:23.060Z,1030.05
2017-04-05T09:17:23.060Z,1030.03
2017-04-05T09:18:23.060Z,1029.99
2017-04-05T09:19:23.059Z,1029.97
2017-04-05T09:20:23.059Z,1030.09
2017-04-05T09:21:23.063Z,1030.12
2017-04-05T09:22:23.061Z,1030.02
2017-04-05T09:23:23.061Z,1029.94
2017-04-05T09:24:23.063Z,1029.96
2017-04-05T09:25:23.062Z,1029.95
2017-04-05T09:26:23.062Z,1029.98
2017-04-05T09:27:23.063Z,1030.03
2017-04-05T09:28:23.064Z,1030.07
2017-04-05T09:29:23.067Z,1030.1
2017-04-05T09:30:23.064Z,1030.05
2017-04-05T09:31:23.065Z,1030.01
2017-04-05T09:32:23.063Z,1029.98
2017-04-05T09:33:23.065Z,1029.99
2017-04-05T09:34:23.065Z,1030.03
2017-04-05T09:35:23.066Z,1030.03
2017-04-05T09:36:23.066Z,1030.06
2017-04-05T09:37:23.065Z,1030.11
2017-04-05T09:38:23.068Z,1030.12
2017-04-05T09:39:23.068Z,1030.11
2017-04-05T09:40:23.067Z,1030.13
2017-04-05T09:41:23.069Z,1030.08
2017-04-05T09:42:23.068Z,1030.03
2017-04-05T09:43:23.067Z,1029.94
2017-04-05T09:44:23.068Z,1029.89
2017-04-05T09:45:23.069Z,1029.79
2017-04-05T09:46:23.069Z,1029.72
2017-04-05T09:47:23.069Z,1029.66
2017-04-05T09:48:23.069Z,1029.62
2017-04-05T09:49:23.070Z,1029.59
2017-04-05T09:50:23.071Z,1029.53
2017-04-05T09:51:23.070Z,1029.52
2017-04-05T09:52:23.072Z,1029.4
2017-04-05T09:53:23.072Z,1029.29
2017-04-05T09:54:23.071Z,1029.23
2017-04-05T09:55:23.072Z,1029.29
2017-04-05T09:56:23.074Z,1029.35
2017-04-05T09:57:23.074Z,1029.43
2017-04-05T09:58:23.073Z,1029.42
2017-04-05T09:59:23.074Z,1029.44
2017-04-05T10:00:23.075Z,1029.42
2017-04-05T10:01:23.076Z,1029.4
2017-04-05T10:02:23.076Z,1029.5
2017-04-05T10:03:23.077Z,1029.54
2017-04-05T10:04:23.078Z,1029.54
2017-04-05T10:05:23.078Z,1029.67
2017-04-05T10:06:23.079Z,1029.66
2017-04-05T10:07:23.080Z,1029.73
2017-04-05T10:08:23.081Z,1029.8
2017-04-05T10:09:23.080Z,1029.84
2017-04-05T10:10:23.081Z,1029.96
2017-04-05T10:11:23.082Z,1029.89
2017-04-05T10:12:23.083Z,1029.88
2017-04-05T10:13:23.084Z,1029.86
2017-04-05T10:14:23.084Z,1029.78
2017-04-05T10:15:23.085Z,1029.77
2017-04-05T10:16:23.085Z,1029.67
2017-04-05T10:17:23.086Z,1029.61
2017-04-05T10:18:23.085Z,1029.63
2017-04-05T10:19:23.087Z,1029.54
2017-04-05T10:20:23.086Z,1029.45
2017-04-05T10:21:23.106Z,1029.33
2017-04-05T10:22:23.088Z,1029.35
2017-04-05T10:23:23.088Z,1029.34
2017-04-05T10:24:23.089Z,1029.28
2017-04-05T10:25:23.090Z,1029.12
2017-04-05T10:26:23.091Z,1029.06
2017-04-05T10:27:23.090Z,1029.01
2017-04-05T10:28:23.094Z,1028.99
2017-04-05T10:29:23.093Z,1029.07
2017-04-05T10:30:23.094Z,1029.15
2017-04-05T10:31:23.095Z,1029.26
2017-04-05T10:32:23.095Z,1029.34
2017-04-05T10:33:23.097Z,1029.43
2017-04-05T10:34:23.098Z,1029.46
2017-04-05T10:35:23.098Z,1029.5
2017-04-05T10:36:23.099Z,1029.51
2017-04-05T10:37:23.100Z,1029.51
2017-04-05T10:38:23.100Z,1029.47
2017-04-05T10:39:23.101Z,1029.48
2017-04-05T10:40:23.101Z,1029.58
2017-04-05T10:41:23.103Z,1029.66
2017-04-05T10:42:23.103Z,1029.69
2017-04-05T10:43:23.104Z,1029.67
2017-04-05T10:44:23.105Z,1029.61
2017-04-05T10:45:23.106Z,1029.64
2017-04-05T10:46:23.106Z,1029.7
2017-04-05T10:47:23.106Z,1029.79
2017-04-05T10:48:23.108Z,1029.91
2017-04-05T10:49:23.107Z,1029.92
2017-04-05T10:50:23.108Z,1029.93
2017-04-05T10:51:23.108Z,1029.93
2017-04-05T10:52:23.109Z,1029.91
2017-04-05T10:53:23.108Z,1029.89
2017-04-05T10:54:23.108Z,1029.99
2017-04-05T10:55:23.110Z,1030.09
2017-04-05T10:56:23.109Z,1030.08
2017-04-05T10:57:23.109Z,1030.07
2017-04-05T10:58:23.110Z,1029.96
2017-04-05T10:59:23.110Z,1029.8
2017-04-05T11:00:23.110Z,1029.6
2017-04-05T11:01:23.111Z,1029.4
2017-04-05T11:02:23.110Z,1029.26
2017-04-05T11:03:23.111Z,1029.2
2017-04-05T11:04:23.113Z,1029.23
2017-04-05T11:05:23.111Z,1029.17
2017-04-05T11:06:23.112Z,1029.19
2017-04-05T11:07:23.111Z,1029.27
2017-04-05T11:08:23.113Z,1029.3
2017-04-05T11:09:23.113Z,1029.34
2017-04-05T11:10:23.114Z,1029.39
2017-04-05T11:11:23.112Z,1029.43
2017-04-05T11:12:23.115Z,1029.29
2017-04-05T11:13:23.115Z,1029.21
2017-04-05T11:14:23.117Z,1029.19
2017-04-05T11:15:23.116Z,1029.1
2017-04-05T11:16:23.116Z,1029.07
2017-04-05T11:17:23.118Z,1028.99
2017-04-05T11:18:23.117Z,1028.84
2017-04-05T11:19:23.118Z,1028.74
2017-04-05T11:20:23.120Z,1028.71
2017-04-05T11:21:23.121Z,1028.61
2017-04-05T11:22:23.122Z,1028.57
2017-04-05T11:23:23.121Z,1028.55
2017-04-05T11:24:23.125Z,1028.56
2017-04-05T11:25:23.125Z,1028.52
2017-04-05T11:26:23.125Z,1028.5
2017-04-05T11:27:23.126Z,1028.44
2017-04-05T11:28:23.128Z,1028.31
2017-04-05T11:29:23.128Z,1028.16
2017-04-05T11:30:23.130Z,1028.01
2017-04-05T11:31:23.132Z,1027.94
2017-04-05T11:32:23.133Z,1027.88
2017-04-05T11:33:23.134Z,1027.83
2017-04-05T11:34:23.136Z,1027.8
2017-04-05T11:35:23.138Z,1027.85
2017-04-05T11:36:23.140Z,1027.86
2017-04-05T11:37:23.141Z,1027.98
2017-04-05T11:38:23.148Z,1028.21
2017-04-05T11:39:23.145Z,1028.34
2017-04-05T11:40:23.146Z,1028.59
2017-04-05T11:41:23.151Z,1028.83
2017-04-05T11:42:23.151Z,1029.04
2017-04-05T11:43:23.152Z,1029.25
2017-04-05T11:44:23.153Z,1029.42
2017-04-05T11:45:23.154Z,1029.6
2017-04-05T11:46:23.156Z,1029.73
2017-04-05T11:47:23.157Z,1029.9
2017-04-05T11:48:23.157Z,1030.1
2017-04-05T11:49:23.158Z,1030.18
2017-04-05T11:50:23.159Z,1030.26
2017-04-05T11:51:23.158Z,1030.34
2017-04-05T11:52:23.159Z,1030.44
2017-04-05T11:53:23.164Z,1030.47
2017-04-05T11:54:23.159Z,1030.51
2017-04-05T11:55:23.158Z,1030.52
2017-04-05T11:56:23.158Z,1030.31
2017-04-05T11:57:23.158Z,1030.23
2017-04-05T11:58:23.157Z,1030.1
2017-04-05T11:59:23.157Z,1030.11
2017-04-05T12:00:23.156Z,1030
2017-04-05T12:01:23.156Z,1029.87
2017-04-05T12:02:23.160Z,1029.77
2017-04-05T12:03:23.154Z,1029.75
2017-04-05T12:04:23.153Z,1029.61
2017-04-05T12:05:23.153Z,1029.58
2017-04-05T12:06:23.152Z,1029.49
2017-04-05T12:07:23.152Z,1029.43
2017-04-05T12:08:23.151Z,1029.34